Terminal Aerodrome Forecast
Issued by NWS Upton, NY

Home | Current Version | Previous Version | Text Only | Print | Product List | Glossary On
Versions: 1 2 3 4 5 6 7 8 9 10 11 12 13 14 15 16 17 18 19 20 21 22 23 24 25 26 27 28 29 30
348
FTUS41 KOKX 181538 AAB
TAFISP
TAF AMD
KISP 181538Z 1816/1912 02005KT 3SM -RA BR OVC010
     FM181900 VRB04KT P6SM OVC010
     FM182100 30006KT P6SM SCT015 BKN050
     FM190000 26006KT P6SM BKN070=

USA.gov is the U.S. government's official web portal to all federal, state and local government web resources and services.